Time;durP1;ratioP1;P1;durP2;ratioP2;P2;SDS_P1;SDS_P2;PMS_P1;PMS_P2;Temp;Humidity;BMP_temperature;BMP_pressure;BME280_temperature;BME280_humidity;BME280_pressure;Samples;Min_cycle;Max_cycle;Signal;HPM_P1;HPM_P2
2023/04/12 00:02:23;;;;;;;11.07;2.00;;;;;;;;;;5044071;28;20196;-67
2023/04/12 00:04:54;;;;;;;9.43;2.15;;;;;;;;;;5030712;28;20205;-68
2023/04/12 00:07:20;;;;;;;11.32;1.95;;;;;;;;;;5036497;28;20671;-67
2023/04/12 00:09:46;;;;;;;12.70;2.80;;;;;;;;;;5042755;28;20212;-67
2023/04/12 00:12:11;;;;;;;11.40;2.35;;;;;;;;;;5047137;28;20189;-67
2023/04/12 00:14:37;;;;;;;10.10;2.67;;;;;;;;;;5046836;28;20274;-67
2023/04/12 00:17:02;;;;;;;9.75;2.47;;;;;;;;;;5046583;28;20710;-67
2023/04/12 00:19:29;;;;;;;9.75;2.08;;;;;;;;;;5031312;28;20198;-67
2023/04/12 00:21:55;;;;;;;5.30;1.92;;;;;;;;;;5037266;28;20646;-67
2023/04/12 00:24:21;;;;;;;11.80;2.75;;;;;;;;;;5040012;28;20203;-67
2023/04/12 00:26:46;;;;;;;9.63;2.30;;;;;;;;;;5040431;28;20186;-68
2023/04/12 00:29:11;;;;;;;8.95;2.20;;;;;;;;;;5036969;28;20236;-67
2023/04/12 00:31:37;;;;;;;7.50;2.08;;;;;;;;;;5037496;28;20269;-67
2023/04/12 00:34:02;;;;;;;11.02;2.70;;;;;;;;;;5037432;28;20265;-67
2023/04/12 00:36:27;;;;;;;8.98;2.40;;;;;;;;;;5038255;28;20212;-67
2023/04/12 00:38:53;;;;;;;8.20;1.80;;;;;;;;;;5029758;28;20210;-67
2023/04/12 00:41:18;;;;;;;11.80;2.08;;;;;;;;;;5040205;28;20253;-67
2023/04/12 00:43:44;;;;;;;9.88;1.75;;;;;;;;;;5044748;28;20245;-67
2023/04/12 00:46:11;;;;;;;6.60;1.90;;;;;;;;;;5047289;28;20266;-67
2023/04/12 00:48:37;;;;;;;6.80;1.98;;;;;;;;;;5037978;28;20243;-66
2023/04/12 00:51:03;;;;;;;7.70;2.03;;;;;;;;;;5041174;28;20289;-66
2023/04/12 00:53:30;;;;;;;7.30;1.80;;;;;;;;;;5040367;28;20582;-67
2023/04/12 00:55:55;;;;;;;8.02;2.17;;;;;;;;;;5033970;28;20577;-66
2023/04/12 00:58:23;;;;;;;6.90;1.73;;;;;;;;;;5032420;28;20198;-65
2023/04/12 01:00:51;;;;;;;11.02;2.22;;;;;;;;;;5040973;28;20201;-67
2023/04/12 01:03:21;;;;;;;9.77;1.90;;;;;;;;;;5036897;28;20186;-67
2023/04/12 01:06:12;;;;;;;8.73;1.58;;;;;;;;;;5048321;28;20266;-66
2023/04/12 01:09:03;;;;;;;11.77;2.72;;;;;;;;;;5050415;28;20212;-66
2023/04/12 01:11:45;;;;;;;8.07;2.13;;;;;;;;;;5047979;28;20203;-66
2023/04/12 01:14:19;;;;;;;7.70;2.25;;;;;;;;;;5049513;28;20201;-67
2023/04/12 01:16:52;;;;;;;9.25;1.80;;;;;;;;;;5040834;28;20194;-66
2023/04/12 01:19:52;;;;;;;6.93;1.55;;;;;;;;;;5047667;28;20351;-66
2023/04/12 01:22:36;;;;;;;10.15;2.38;;;;;;;;;;5046617;28;20189;-66
2023/04/12 01:25:22;;;;;;;4.68;1.60;;;;;;;;;;5046807;28;20189;-67
2023/04/12 01:27:51;;;;;;;9.13;2.00;;;;;;;;;;5048404;28;20678;-66
2023/04/12 01:30:19;;;;;;;11.13;1.80;;;;;;;;;;5045132;28;20626;-66
2023/04/12 01:32:49;;;;;;;9.10;2.20;;;;;;;;;;5037848;28;20190;-66
2023/04/12 01:35:17;;;;;;;9.32;1.77;;;;;;;;;;5039461;28;20251;-67
2023/04/12 01:37:43;;;;;;;8.38;1.48;;;;;;;;;;5036739;28;20407;-66
2023/04/12 01:40:11;;;;;;;7.05;1.50;;;;;;;;;;5048443;28;20201;-67
2023/04/12 01:42:36;;;;;;;6.82;1.75;;;;;;;;;;5046674;28;20234;-67
2023/04/12 01:45:02;;;;;;;9.65;2.28;;;;;;;;;;5046138;28;20181;-67
2023/04/12 01:47:28;;;;;;;4.55;1.50;;;;;;;;;;5045608;28;20190;-67
2023/04/12 01:50:10;;;;;;;7.05;1.30;;;;;;;;;;5045931;28;20642;-67
2023/04/12 01:52:40;;;;;;;6.40;1.67;;;;;;;;;;5041516;28;20194;-66
2023/04/12 01:55:06;;;;;;;5.47;1.58;;;;;;;;;;5039399;28;20698;-66
2023/04/12 01:57:33;;;;;;;7.10;2.00;;;;;;;;;;5045410;28;20276;-66
2023/04/12 02:00:02;;;;;;;8.30;1.67;;;;;;;;;;5047537;28;21483;-66
2023/04/12 02:02:27;;;;;;;7.97;1.45;;;;;;;;;;5048400;28;20584;-66
2023/04/12 02:04:54;;;;;;;7.72;1.20;;;;;;;;;;5036785;28;20582;-67
2023/04/12 02:07:21;;;;;;;7.75;1.50;;;;;;;;;;5041810;28;20228;-67
2023/04/12 02:09:46;;;;;;;6.75;1.23;;;;;;;;;;5041029;28;20213;-67
2023/04/12 02:12:12;;;;;;;6.00;1.40;;;;;;;;;;5047449;28;20198;-67
2023/04/12 02:14:37;;;;;;;6.18;1.42;;;;;;;;;;5035703;28;20193;-65
2023/04/12 02:17:04;;;;;;;5.55;1.52;;;;;;;;;;5048147;28;20247;-67
2023/04/12 02:19:31;;;;;;;11.05;2.13;;;;;;;;;;5041771;28;20182;-66
2023/04/12 02:21:56;;;;;;;9.93;1.83;;;;;;;;;;5043801;28;20193;-67
2023/04/12 02:24:21;;;;;;;6.10;1.67;;;;;;;;;;5048344;28;20592;-67
2023/04/12 02:26:49;;;;;;;6.47;1.85;;;;;;;;;;5035645;28;20247;-67
2023/04/12 02:29:16;;;;;;;5.57;1.50;;;;;;;;;;5046206;28;20677;-67
2023/04/12 02:31:41;;;;;;;7.28;1.30;;;;;;;;;;5047094;28;20189;-67
2023/04/12 02:34:06;;;;;;;10.18;1.75;;;;;;;;;;5044026;28;20476;-67
2023/04/12 02:36:33;;;;;;;12.65;2.08;;;;;;;;;;5035920;28;20194;-67
2023/04/12 02:38:59;;;;;;;5.70;1.60;;;;;;;;;;5030898;28;20178;-67
2023/04/12 02:41:25;;;;;;;10.02;1.90;;;;;;;;;;5041863;28;20204;-66
2023/04/12 02:43:50;;;;;;;5.85;1.98;;;;;;;;;;5046156;28;20217;-67
2023/04/12 02:46:20;;;;;;;9.80;2.05;;;;;;;;;;5037513;28;20190;-66
2023/04/12 02:48:46;;;;;;;7.07;2.08;;;;;;;;;;5044322;28;20229;-66
2023/04/12 02:51:11;;;;;;;9.65;2.70;;;;;;;;;;5036799;28;20202;-66
2023/04/12 02:53:36;;;;;;;12.70;2.50;;;;;;;;;;5040749;28;20190;-67
2023/04/12 02:56:06;;;;;;;8.70;2.30;;;;;;;;;;5041016;28;20201;-66
2023/04/12 02:58:32;;;;;;;7.63;2.20;;;;;;;;;;5047085;28;20641;-66
2023/04/12 03:00:59;;;;;;;6.30;2.28;;;;;;;;;;5040380;28;20206;-67
2023/04/12 03:03:25;;;;;;;7.55;2.30;;;;;;;;;;5043078;28;20196;-67
2023/04/12 03:05:51;;;;;;;8.10;1.88;;;;;;;;;;5046254;28;20193;-67
2023/04/12 03:08:17;;;;;;;8.18;2.00;;;;;;;;;;5036388;28;20243;-67
2023/04/12 03:10:43;;;;;;;7.25;1.95;;;;;;;;;;5045744;28;20602;-67
2023/04/12 03:13:08;;;;;;;10.18;1.90;;;;;;;;;;5043330;28;20196;-67
2023/04/12 03:15:33;;;;;;;10.23;2.00;;;;;;;;;;5045606;28;20229;-67
2023/04/12 03:17:59;;;;;;;8.02;1.88;;;;;;;;;;5042923;28;20280;-67
2023/04/12 03:20:24;;;;;;;8.40;1.80;;;;;;;;;;5044101;28;20315;-67
2023/04/12 03:22:50;;;;;;;7.82;1.90;;;;;;;;;;5044764;28;20290;-67
2023/04/12 03:25:18;;;;;;;8.15;2.78;;;;;;;;;;5045728;28;20193;-67
2023/04/12 03:27:44;;;;;;;6.32;2.00;;;;;;;;;;5042208;28;20559;-66
2023/04/12 03:30:10;;;;;;;6.63;1.67;;;;;;;;;;5039953;28;20214;-67
2023/04/12 03:32:40;;;;;;;8.18;2.00;;;;;;;;;;5041915;28;20700;-66
2023/04/12 03:35:10;;;;;;;5.93;2.00;;;;;;;;;;5045831;28;20181;-66
2023/04/12 03:37:35;;;;;;;6.95;1.70;;;;;;;;;;5044341;28;20193;-67
2023/04/12 03:40:01;;;;;;;6.50;1.95;;;;;;;;;;5043812;28;20224;-67
2023/04/12 03:42:27;;;;;;;8.35;1.60;;;;;;;;;;5044365;28;20193;-67
2023/04/12 03:44:53;;;;;;;7.13;1.48;;;;;;;;;;5045580;28;20220;-66
2023/04/12 03:47:19;;;;;;;5.30;1.60;;;;;;;;;;5043069;28;20609;-67
2023/04/12 03:49:46;;;;;;;4.88;1.30;;;;;;;;;;5046193;28;20208;-67
2023/04/12 03:52:12;;;;;;;7.13;1.55;;;;;;;;;;5042971;28;20189;-66
2023/04/12 03:54:37;;;;;;;6.55;1.67;;;;;;;;;;5044860;28;20202;-67
2023/04/12 03:57:03;;;;;;;5.90;1.73;;;;;;;;;;5043883;28;20536;-66
2023/04/12 03:59:28;;;;;;;7.65;1.70;;;;;;;;;;5043607;28;20189;-67
2023/04/12 04:01:55;;;;;;;8.68;1.75;;;;;;;;;;5040334;28;20640;-67
2023/04/12 04:04:22;;;;;;;5.40;1.80;;;;;;;;;;5043518;28;20201;-66
2023/04/12 04:06:47;;;;;;;8.50;1.77;;;;;;;;;;5036917;28;20354;-67
2023/04/12 04:09:13;;;;;;;7.05;1.63;;;;;;;;;;5043720;28;20201;-66
2023/04/12 04:11:39;;;;;;;11.93;3.17;;;;;;;;;;5046723;28;20260;-66
2023/04/12 04:14:04;;;;;;;5.80;1.52;;;;;;;;;;5046934;28;20208;-67
2023/04/12 04:16:30;;;;;;;5.35;1.63;;;;;;;;;;5042756;28;20251;-67
2023/04/12 04:18:55;;;;;;;4.47;1.67;;;;;;;;;;5046466;28;20238;-67
2023/04/12 04:21:21;;;;;;;6.40;1.67;;;;;;;;;;5042403;28;20250;-67
2023/04/12 04:23:47;;;;;;;5.93;1.65;;;;;;;;;;5043536;28;20229;-66
2023/04/12 04:26:14;;;;;;;6.63;1.73;;;;;;;;;;5038902;28;20581;-66
2023/04/12 04:28:43;;;;;;;4.68;1.30;;;;;;;;;;5042513;28;20625;-67
2023/04/12 04:31:12;;;;;;;7.70;1.45;;;;;;;;;;5037716;28;20273;-68
2023/04/12 04:33:38;;;;;;;6.25;1.42;;;;;;;;;;5034617;28;20252;-66
2023/04/12 04:36:06;;;;;;;8.02;1.60;;;;;;;;;;5042205;28;20189;-67
2023/04/12 04:38:32;;;;;;;4.90;1.23;;;;;;;;;;5040880;28;20225;-66
2023/04/12 04:41:01;;;;;;;3.50;1.15;;;;;;;;;;5043931;28;20178;-67
2023/04/12 04:43:30;;;;;;;4.45;1.38;;;;;;;;;;5039343;28;20204;-66
2023/04/12 04:45:56;;;;;;;6.80;1.80;;;;;;;;;;5045591;28;20189;-66
2023/04/12 04:48:22;;;;;;;4.75;1.30;;;;;;;;;;5042135;28;20276;-67
2023/04/12 04:50:50;;;;;;;5.03;1.67;;;;;;;;;;5045465;28;20193;-66
2023/04/12 04:53:17;;;;;;;5.38;1.27;;;;;;;;;;5044297;28;20190;-66
2023/04/12 04:55:43;;;;;;;4.07;1.40;;;;;;;;;;5043651;28;20204;-67
2023/04/12 04:58:08;;;;;;;5.13;1.55;;;;;;;;;;5038696;28;20560;-67
2023/04/12 05:00:35;;;;;;;6.55;1.45;;;;;;;;;;5033288;28;20275;-67
2023/04/12 05:03:01;;;;;;;5.53;1.48;;;;;;;;;;5027662;28;20186;-67
2023/04/12 05:05:27;;;;;;;6.13;1.27;;;;;;;;;;5041776;28;20182;-66
2023/04/12 05:07:54;;;;;;;7.05;1.65;;;;;;;;;;5041482;28;20317;-67
2023/04/12 05:10:19;;;;;;;4.10;1.45;;;;;;;;;;5042659;28;20804;-67
2023/04/12 05:12:45;;;;;;;6.15;1.85;;;;;;;;;;5045845;28;20331;-67
2023/04/12 05:15:10;;;;;;;6.85;1.70;;;;;;;;;;5046136;28;20186;-66
2023/04/12 05:17:36;;;;;;;5.75;2.03;;;;;;;;;;5045517;28;20232;-68
2023/04/12 05:20:05;;;;;;;4.65;1.58;;;;;;;;;;5034765;28;20186;-67
2023/04/12 05:22:30;;;;;;;5.20;1.67;;;;;;;;;;5035135;28;20209;-67
2023/04/12 05:24:56;;;;;;;5.22;1.52;;;;;;;;;;5040479;28;20216;-67
2023/04/12 05:27:21;;;;;;;5.35;1.60;;;;;;;;;;5032267;28;20283;-68
2023/04/12 05:29:46;;;;;;;4.10;1.63;;;;;;;;;;5033450;28;20379;-68
2023/04/12 05:32:12;;;;;;;5.97;1.77;;;;;;;;;;5042330;28;20194;-71
2023/04/12 05:34:37;;;;;;;5.38;1.63;;;;;;;;;;5044057;28;20532;-73
2023/04/12 05:37:03;;;;;;;10.23;1.92;;;;;;;;;;5031925;28;20364;-70
2023/04/12 05:39:29;;;;;;;7.00;1.70;;;;;;;;;;5028778;28;20201;-74
2023/04/12 05:41:54;;;;;;;3.47;1.30;;;;;;;;;;5043996;28;20193;-75
2023/04/12 05:44:20;;;;;;;5.80;1.55;;;;;;;;;;5025901;28;20201;-73
2023/04/12 05:46:45;;;;;;;7.53;2.08;;;;;;;;;;5032624;28;20197;-72
2023/04/12 05:49:11;;;;;;;6.40;1.60;;;;;;;;;;5031660;28;20293;-71
2023/04/12 05:51:36;;;;;;;6.65;1.30;;;;;;;;;;5039110;28;20261;-70
2023/04/12 05:54:05;;;;;;;3.45;1.30;;;;;;;;;;5040424;28;20233;-70
2023/04/12 05:56:30;;;;;;;4.13;1.60;;;;;;;;;;5034750;28;20202;-71
2023/04/12 05:58:56;;;;;;;3.65;1.35;;;;;;;;;;5041369;28;20189;-71
2023/04/12 06:01:23;;;;;;;3.38;1.60;;;;;;;;;;5041404;28;20644;-71
2023/04/12 06:03:49;;;;;;;3.25;1.50;;;;;;;;;;5044626;28;20270;-72
2023/04/12 06:06:15;;;;;;;5.00;1.40;;;;;;;;;;5042256;28;20194;-71
2023/04/12 06:08:41;;;;;;;4.70;1.52;;;;;;;;;;5035141;28;20198;-72
2023/04/12 06:11:08;;;;;;;5.90;1.83;;;;;;;;;;5040901;28;20190;-72
2023/04/12 06:13:33;;;;;;;5.25;1.35;;;;;;;;;;5036989;28;20219;-72
2023/04/12 06:15:59;;;;;;;3.95;1.42;;;;;;;;;;5044614;28;20185;-72
2023/04/12 06:18:24;;;;;;;5.70;1.52;;;;;;;;;;5030715;28;20222;-71
2023/04/12 06:20:50;;;;;;;7.90;1.75;;;;;;;;;;5043287;28;20200;-72
2023/04/12 06:23:18;;;;;;;3.47;1.40;;;;;;;;;;5031981;28;20197;-72
2023/04/12 06:25:43;;;;;;;2.80;1.17;;;;;;;;;;5038204;28;20594;-71
2023/04/12 06:28:08;;;;;;;4.95;1.55;;;;;;;;;;5029434;28;20256;-70
2023/04/12 06:30:34;;;;;;;4.80;1.40;;;;;;;;;;5027565;28;20276;-70
2023/04/12 06:32:59;;;;;;;3.47;1.67;;;;;;;;;;5030581;28;20530;-72
2023/04/12 06:35:24;;;;;;;3.45;1.60;;;;;;;;;;5043772;28;20190;-71
2023/04/12 06:37:50;;;;;;;5.43;1.58;;;;;;;;;;5047200;28;20192;-72
2023/04/12 06:40:15;;;;;;;3.17;1.70;;;;;;;;;;5042688;28;20236;-71
2023/04/12 06:42:41;;;;;;;3.45;1.98;;;;;;;;;;5035338;28;20193;-73
2023/04/12 06:45:06;;;;;;;5.10;2.03;;;;;;;;;;5038204;28;20221;-73
2023/04/12 06:47:32;;;;;;;4.60;1.50;;;;;;;;;;5035065;28;20261;-72
2023/04/12 06:49:57;;;;;;;5.45;1.80;;;;;;;;;;5049042;28;20214;-73
2023/04/12 06:52:25;;;;;;;4.35;1.63;;;;;;;;;;5043151;28;20250;-73
2023/04/12 06:54:50;;;;;;;3.60;1.67;;;;;;;;;;5048930;28;20476;-73
2023/04/12 06:57:16;;;;;;;4.03;2.10;;;;;;;;;;5045967;28;20243;-73
2023/04/12 06:59:41;;;;;;;6.00;1.90;;;;;;;;;;5042041;28;20676;-73
2023/04/12 07:02:07;;;;;;;5.55;1.92;;;;;;;;;;5040351;28;20611;-73
2023/04/12 07:04:32;;;;;;;6.38;1.42;;;;;;;;;;5045618;28;20201;-73
2023/04/12 07:06:58;;;;;;;8.82;1.75;;;;;;;;;;5041100;28;20194;-70
2023/04/12 07:09:23;;;;;;;4.53;1.73;;;;;;;;;;5039590;28;20681;-72
2023/04/12 07:11:49;;;;;;;5.22;2.10;;;;;;;;;;5047120;28;20194;-71
2023/04/12 07:14:14;;;;;;;5.18;2.00;;;;;;;;;;5045907;28;20699;-72
2023/04/12 07:16:41;;;;;;;2.75;1.90;;;;;;;;;;5044644;28;20244;-73
2023/04/12 07:19:07;;;;;;;5.65;2.00;;;;;;;;;;5038096;28;20185;-72
2023/04/12 07:21:32;;;;;;;3.10;1.88;;;;;;;;;;5016401;28;20785;-74
2023/04/12 07:23:58;;;;;;;5.13;2.10;;;;;;;;;;5048785;28;20208;-74
2023/04/12 07:26:23;;;;;;;6.75;2.40;;;;;;;;;;5047089;28;20230;-73
2023/04/12 07:28:49;;;;;;;6.55;2.00;;;;;;;;;;5048239;28;20320;-75
2023/04/12 07:31:14;;;;;;;7.10;2.00;;;;;;;;;;5048698;28;20311;-73
2023/04/12 07:33:40;;;;;;;4.70;2.10;;;;;;;;;;5037654;28;20546;-72
2023/04/12 07:36:05;;;;;;;7.68;2.38;;;;;;;;;;5042932;28;20285;-72
2023/04/12 07:38:31;;;;;;;3.72;2.00;;;;;;;;;;5032141;28;20193;-73
2023/04/12 07:40:56;;;;;;;4.45;2.35;;;;;;;;;;5036684;28;20193;-70
2023/04/12 07:43:22;;;;;;;4.47;2.05;;;;;;;;;;5031725;28;20256;-72
2023/04/12 07:45:48;;;;;;;3.35;2.40;;;;;;;;;;5044933;28;20217;-72
2023/04/12 07:48:13;;;;;;;5.57;2.28;;;;;;;;;;5039831;28;20191;-72
2023/04/12 07:50:40;;;;;;;5.15;2.40;;;;;;;;;;5033717;28;20292;-73
2023/04/12 07:53:21;;;;;;;5.43;2.83;;;;;;;;;;5048495;28;20185;-73
2023/04/12 07:55:48;;;;;;;6.30;2.78;;;;;;;;;;5026942;28;20182;-73
2023/04/12 07:58:17;;;;;;;5.60;2.72;;;;;;;;;;5041879;28;20204;-73
2023/04/12 08:00:44;;;;;;;6.75;3.50;;;;;;;;;;5048180;28;20267;-73
2023/04/12 08:03:11;;;;;;;5.28;2.72;;;;;;;;;;5044710;28;20185;-72
2023/04/12 08:05:36;;;;;;;6.45;3.25;;;;;;;;;;5047788;28;20192;-73
2023/04/12 08:08:02;;;;;;;5.22;2.70;;;;;;;;;;5047448;28;20193;-73
2023/04/12 08:10:29;;;;;;;5.05;3.58;;;;;;;;;;5047825;28;20271;-72
2023/04/12 08:12:55;;;;;;;3.83;3.20;;;;;;;;;;5034119;28;20205;-73
2023/04/12 08:15:20;;;;;;;5.43;3.22;;;;;;;;;;5047763;28;20209;-72
2023/04/12 08:17:46;;;;;;;4.63;3.10;;;;;;;;;;5036333;28;20522;-72
2023/04/12 08:20:14;;;;;;;4.15;3.45;;;;;;;;;;5046898;28;20181;-72
2023/04/12 08:22:40;;;;;;;6.15;3.63;;;;;;;;;;5036443;28;20605;-72
2023/04/12 08:25:07;;;;;;;4.68;3.80;;;;;;;;;;5044895;28;20620;-72
2023/04/12 08:27:33;;;;;;;7.57;4.80;;;;;;;;;;5048057;28;20197;-72
2023/04/12 08:29:58;;;;;;;4.93;4.32;;;;;;;;;;5047061;28;20225;-72
2023/04/12 08:32:23;;;;;;;5.45;3.83;;;;;;;;;;5042122;28;20228;-72
2023/04/12 08:34:49;;;;;;;5.15;4.65;;;;;;;;;;5041783;28;20193;-72
2023/04/12 08:37:15;;;;;;;6.05;5.40;;;;;;;;;;5036132;28;20389;-73
2023/04/12 08:39:41;;;;;;;6.03;4.95;;;;;;;;;;5048338;28;20246;-72
2023/04/12 08:42:06;;;;;;;5.03;3.80;;;;;;;;;;5045880;28;20194;-72
2023/04/12 08:44:38;;;;;;;4.90;4.50;;;;;;;;;;5038583;28;20299;-72
2023/04/12 08:47:05;;;;;;;5.35;4.82;;;;;;;;;;5030870;28;20270;-72
2023/04/12 08:49:32;;;;;;;6.75;6.10;;;;;;;;;;5034389;28;20212;-71
2023/04/12 08:52:01;;;;;;;7.70;6.85;;;;;;;;;;5044384;28;20201;-73
2023/04/12 08:54:27;;;;;;;7.50;6.80;;;;;;;;;;5041648;28;20197;-73
2023/04/12 08:56:57;;;;;;;7.35;6.57;;;;;;;;;;5039008;28;20259;-72
2023/04/12 08:59:26;;;;;;;7.63;6.85;;;;;;;;;;5041733;28;20189;-73
2023/04/12 09:01:52;;;;;;;8.88;7.82;;;;;;;;;;5033409;28;20197;-73
2023/04/12 09:04:18;;;;;;;10.00;9.00;;;;;;;;;;5046134;28;20189;-72
2023/04/12 09:06:43;;;;;;;8.35;7.25;;;;;;;;;;5042441;28;20594;-73
2023/04/12 09:09:09;;;;;;;10.40;6.93;;;;;;;;;;5041053;28;20216;-73
2023/04/12 09:11:35;;;;;;;8.93;7.82;;;;;;;;;;5035752;28;20207;-72
2023/04/12 09:14:00;;;;;;;6.10;5.50;;;;;;;;;;5044266;28;20575;-73
2023/04/12 09:16:33;;;;;;;9.77;8.60;;;;;;;;;;5043827;28;20208;-73
2023/04/12 09:19:01;;;;;;;10.52;8.40;;;;;;;;;;5041779;28;20212;-72
2023/04/12 09:21:26;;;;;;;9.20;8.30;;;;;;;;;;5047610;28;20185;-72
2023/04/12 09:24:08;;;;;;;13.35;8.13;;;;;;;;;;5029958;28;20532;-73
2023/04/12 09:26:34;;;;;;;10.85;8.63;;;;;;;;;;5041849;28;20718;-72
2023/04/12 09:29:00;;;;;;;9.73;8.25;;;;;;;;;;5045863;28;20230;-71
2023/04/12 09:31:26;;;;;;;9.52;8.38;;;;;;;;;;5039663;28;20189;-71
2023/04/12 09:33:52;;;;;;;9.75;8.55;;;;;;;;;;5043356;28;20622;-71
2023/04/12 09:36:17;;;;;;;9.30;7.68;;;;;;;;;;5050459;28;20197;-72
2023/04/12 09:39:00;;;;;;;9.70;6.25;;;;;;;;;;5035733;28;20675;-71
2023/04/12 09:41:27;;;;;;;6.60;5.93;;;;;;;;;;5035814;28;20303;-72
2023/04/12 09:43:53;;;;;;;7.28;6.10;;;;;;;;;;5035343;28;20182;-72
2023/04/12 09:46:18;;;;;;;7.35;5.78;;;;;;;;;;5050671;28;20185;-72
2023/04/12 09:48:52;;;;;;;7.47;5.28;;;;;;;;;;5043661;28;20197;-72
2023/04/12 09:51:32;;;;;;;8.77;4.65;;;;;;;;;;5040628;28;20693;-71
2023/04/12 09:54:05;;;;;;;8.40;4.30;;;;;;;;;;5039927;28;20193;-73
2023/04/12 09:56:33;;;;;;;6.35;3.90;;;;;;;;;;5044637;28;20189;-71
2023/04/12 09:59:01;;;;;;;9.27;4.05;;;;;;;;;;5037971;28;20200;-71
2023/04/12 10:01:28;;;;;;;6.38;3.33;;;;;;;;;;5042847;28;20233;-71
2023/04/12 10:03:54;;;;;;;7.32;3.70;;;;;;;;;;5041315;28;20192;-71
2023/04/12 10:06:21;;;;;;;6.25;3.13;;;;;;;;;;5032201;28;20194;-71
2023/04/12 10:08:48;;;;;;;4.85;2.90;;;;;;;;;;5031139;28;20198;-71
2023/04/12 10:11:14;;;;;;;5.57;2.92;;;;;;;;;;5046226;28;20201;-72
2023/04/12 10:13:42;;;;;;;5.43;2.58;;;;;;;;;;5040381;28;20186;-71
2023/04/12 10:16:08;;;;;;;6.97;2.20;;;;;;;;;;5045701;28;20312;-71
2023/04/12 10:18:36;;;;;;;7.95;2.50;;;;;;;;;;5033994;28;20502;-71
2023/04/12 10:21:03;;;;;;;6.53;2.30;;;;;;;;;;5032948;28;20193;-71
2023/04/12 10:23:31;;;;;;;5.93;2.45;;;;;;;;;;5029802;28;20453;-71
2023/04/12 10:25:57;;;;;;;9.02;2.70;;;;;;;;;;5040158;28;20190;-71
2023/04/12 10:28:23;;;;;;;11.88;2.88;;;;;;;;;;5044026;28;20622;-70
2023/04/12 10:30:50;;;;;;;9.60;2.70;;;;;;;;;;5041855;28;20213;-70
2023/04/12 10:33:18;;;;;;;5.30;2.40;;;;;;;;;;5041954;28;20239;-70
2023/04/12 10:36:02;;;;;;;6.90;2.50;;;;;;;;;;5049723;28;20549;-70
2023/04/12 10:38:33;;;;;;;6.78;2.47;;;;;;;;;;5033035;28;20205;-70
2023/04/12 10:41:15;;;;;;;6.80;2.88;;;;;;;;;;5050008;28;20192;-70
2023/04/12 10:43:45;;;;;;;6.05;2.47;;;;;;;;;;5044357;28;20247;-70
2023/04/12 10:46:38;;;;;;;6.18;2.05;;;;;;;;;;5044686;28;20193;-69
2023/04/12 10:49:11;;;;;;;7.20;2.20;;;;;;;;;;5030241;28;20524;-69
2023/04/12 10:51:36;;;;;;;9.27;2.20;;;;;;;;;;5032877;28;20713;-68
2023/04/12 10:54:17;;;;;;;10.25;2.10;;;;;;;;;;5032678;28;20193;-69
2023/04/12 10:56:44;;;;;;;10.82;2.33;;;;;;;;;;5040620;28;20201;-68
2023/04/12 10:59:11;;;;;;;8.00;2.03;;;;;;;;;;5033072;28;20189;-68
2023/04/12 11:01:37;;;;;;;11.82;3.13;;;;;;;;;;5047845;28;20588;-68
2023/04/12 11:04:11;;;;;;;9.38;2.38;;;;;;;;;;5042459;28;20212;-71
2023/04/12 11:06:52;;;;;;;12.25;2.15;;;;;;;;;;5048924;28;20707;-68
2023/04/12 11:09:21;;;;;;;6.07;2.08;;;;;;;;;;5030602;28;20230;-68
2023/04/12 11:11:48;;;;;;;10.18;2.70;;;;;;;;;;5042127;28;20857;-68
2023/04/12 11:14:17;;;;;;;11.85;3.53;;;;;;;;;;5041874;28;20195;-68
2023/04/12 11:17:04;;;;;;;6.35;2.63;;;;;;;;;;5045865;28;20201;-68
2023/04/12 11:19:31;;;;;;;8.45;2.17;;;;;;;;;;5044212;28;20189;-68
2023/04/12 11:21:56;;;;;;;9.80;2.40;;;;;;;;;;5042334;28;20219;-68
2023/04/12 11:24:22;;;;;;;13.82;2.35;;;;;;;;;;5029223;28;20266;-67
2023/04/12 11:26:48;;;;;;;11.20;2.80;;;;;;;;;;5045340;28;20189;-68
2023/04/12 11:29:15;;;;;;;12.25;2.38;;;;;;;;;;5048566;28;20252;-68
2023/04/12 11:31:40;;;;;;;13.38;2.38;;;;;;;;;;5034106;28;20735;-68
2023/04/12 11:34:06;;;;;;;15.95;2.63;;;;;;;;;;5038370;28;20280;-68
2023/04/12 11:36:31;;;;;;;10.68;2.67;;;;;;;;;;5032562;28;20198;-67
2023/04/12 11:38:57;;;;;;;11.80;2.50;;;;;;;;;;5042388;28;20186;-68
2023/04/12 11:41:22;;;;;;;11.93;2.70;;;;;;;;;;5030137;28;20662;-68
2023/04/12 11:43:48;;;;;;;9.32;2.13;;;;;;;;;;5041485;28;20273;-68
2023/04/12 11:46:14;;;;;;;12.07;2.83;;;;;;;;;;5029235;28;20541;-68
2023/04/12 11:48:44;;;;;;;15.50;3.40;;;;;;;;;;5041224;28;20209;-68
2023/04/12 11:51:20;;;;;;;8.95;2.40;;;;;;;;;;5038463;28;20246;-68
2023/04/12 11:53:45;;;;;;;11.80;2.50;;;;;;;;;;5044603;28;20233;-68
2023/04/12 11:56:10;;;;;;;9.00;2.85;;;;;;;;;;5033871;28;20218;-68
2023/04/12 11:58:36;;;;;;;10.02;2.05;;;;;;;;;;5032132;28;20248;-68
2023/04/12 12:01:02;;;;;;;9.75;2.42;;;;;;;;;;5039486;28;20201;-68
2023/04/12 12:03:28;;;;;;;11.10;2.72;;;;;;;;;;5034560;28;20189;-67
2023/04/12 12:05:54;;;;;;;13.10;2.88;;;;;;;;;;5047634;28;20243;-68
2023/04/12 12:08:20;;;;;;;11.00;3.15;;;;;;;;;;5037710;28;20641;-68
2023/04/12 12:10:46;;;;;;;11.48;2.55;;;;;;;;;;5039450;28;20255;-68
2023/04/12 12:13:13;;;;;;;11.77;2.85;;;;;;;;;;5043234;28;20178;-69
2023/04/12 12:15:38;;;;;;;7.55;2.10;;;;;;;;;;5041158;28;20197;-68
2023/04/12 12:18:08;;;;;;;10.77;2.47;;;;;;;;;;5036960;28;20238;-68
2023/04/12 12:20:40;;;;;;;8.52;2.35;;;;;;;;;;5042151;28;20571;-68
2023/04/12 12:23:06;;;;;;;11.30;2.50;;;;;;;;;;5042603;28;20205;-68
2023/04/12 12:25:31;;;;;;;10.80;2.67;;;;;;;;;;5039286;28;20208;-67
2023/04/12 12:27:57;;;;;;;11.93;2.80;;;;;;;;;;5038353;28;20201;-68
2023/04/12 12:30:23;;;;;;;11.95;2.15;;;;;;;;;;5043878;28;20358;-67
2023/04/12 12:32:51;;;;;;;11.48;2.95;;;;;;;;;;5037357;28;20685;-68
2023/04/12 12:35:18;;;;;;;11.80;2.95;;;;;;;;;;5044953;28;20279;-68
2023/04/12 12:37:51;;;;;;;9.55;2.53;;;;;;;;;;5032404;28;20340;-68
2023/04/12 12:40:20;;;;;;;9.63;2.47;;;;;;;;;;5027925;28;20193;-67
2023/04/12 12:42:47;;;;;;;11.23;2.30;;;;;;;;;;5041004;28;20290;-67
2023/04/12 12:45:14;;;;;;;9.43;1.73;;;;;;;;;;5041402;28;20544;-70
2023/04/12 12:48:02;;;;;;;8.13;2.03;;;;;;;;;;5039240;28;20719;-69
2023/04/12 12:50:30;;;;;;;7.75;1.80;;;;;;;;;;5042217;28;20221;-70
2023/04/12 12:52:57;;;;;;;5.80;2.05;;;;;;;;;;5047649;28;20296;-71
2023/04/12 12:55:23;;;;;;;7.80;1.80;;;;;;;;;;5032111;28;20209;-71
2023/04/12 12:57:52;;;;;;;6.13;1.58;;;;;;;;;;5047329;28;20177;-72
2023/04/12 13:00:18;;;;;;;5.88;1.40;;;;;;;;;;5045670;28;20246;-72
2023/04/12 13:02:44;;;;;;;7.95;1.95;;;;;;;;;;5039335;28;20852;-72
2023/04/12 13:05:11;;;;;;;4.18;1.33;;;;;;;;;;4345232;28;10000816;-72
2023/04/12 13:07:37;;;;;;;9.15;1.70;;;;;;;;;;5037065;28;20194;-72
2023/04/12 13:10:03;;;;;;;7.30;1.65;;;;;;;;;;5039916;28;20209;-70
2023/04/12 13:12:28;;;;;;;4.55;1.33;;;;;;;;;;5040948;28;20276;-70
2023/04/12 13:14:54;;;;;;;7.18;1.65;;;;;;;;;;5029724;28;21003;-71
2023/04/12 13:17:19;;;;;;;6.28;1.85;;;;;;;;;;5036033;28;20186;-71
2023/04/12 13:19:45;;;;;;;7.00;1.85;;;;;;;;;;5035448;28;20709;-72
2023/04/12 13:22:12;;;;;;;9.10;2.15;;;;;;;;;;5046063;28;20196;-73
2023/04/12 13:24:37;;;;;;;6.00;2.20;;;;;;;;;;5044737;28;20186;-71
2023/04/12 13:27:03;;;;;;;12.68;2.33;;;;;;;;;;5045259;28;20652;-72
2023/04/12 13:29:29;;;;;;;9.07;2.20;;;;;;;;;;5046503;28;20247;-71
2023/04/12 13:31:54;;;;;;;9.82;2.30;;;;;;;;;;5043669;28;20182;-71
2023/04/12 13:34:20;;;;;;;14.27;2.40;;;;;;;;;;4691513;28;10000435;-72
2023/04/12 13:36:46;;;;;;;15.25;2.47;;;;;;;;;;5038314;28;20280;-71
2023/04/12 13:39:11;;;;;;;8.57;2.40;;;;;;;;;;5038689;28;20292;-72
2023/04/12 13:41:37;;;;;;;9.75;2.17;;;;;;;;;;5038569;28;20553;-72
2023/04/12 13:44:03;;;;;;;11.55;2.40;;;;;;;;;;5034864;28;20204;-72
2023/04/12 13:46:29;;;;;;;11.02;2.13;;;;;;;;;;5043547;28;20201;-71
2023/04/12 13:48:55;;;;;;;7.47;1.63;;;;;;;;;;5021432;28;20339;-74
2023/04/12 13:51:20;;;;;;;14.07;2.20;;;;;;;;;;5037799;28;20372;-73
2023/04/12 13:53:46;;;;;;;7.28;2.13;;;;;;;;;;5036850;28;20899;-73
2023/04/12 13:56:11;;;;;;;12.90;2.90;;;;;;;;;;5031515;28;20195;-73
2023/04/12 13:58:39;;;;;;;11.55;2.70;;;;;;;;;;5043801;28;20224;-73
2023/04/12 14:01:06;;;;;;;12.85;2.70;;;;;;;;;;5043724;28;20233;-72
2023/04/12 14:03:31;;;;;;;16.17;3.85;;;;;;;;;;5039244;28;20194;-72
2023/04/12 14:05:57;;;;;;;10.48;2.72;;;;;;;;;;5041291;28;20619;-74
2023/04/12 14:08:22;;;;;;;13.85;3.22;;;;;;;;;;5037045;28;20568;-74
2023/04/12 14:10:48;;;;;;;11.65;3.08;;;;;;;;;;5045954;28;20300;-73
2023/04/12 14:13:13;;;;;;;17.90;3.53;;;;;;;;;;5043956;28;20440;-73
2023/04/12 14:15:39;;;;;;;11.23;3.42;;;;;;;;;;5041915;28;20204;-74
2023/04/12 14:18:04;;;;;;;16.45;3.03;;;;;;;;;;5041582;28;20186;-74
2023/04/12 14:20:29;;;;;;;19.60;3.00;;;;;;;;;;5033665;28;20209;-73
2023/04/12 14:22:55;;;;;;;13.23;3.17;;;;;;;;;;5041100;28;20649;-74
2023/04/12 14:25:21;;;;;;;10.73;2.70;;;;;;;;;;5038278;28;20250;-74
2023/04/12 14:27:46;;;;;;;9.50;2.72;;;;;;;;;;5035649;28;20210;-71
2023/04/12 14:30:12;;;;;;;14.93;3.28;;;;;;;;;;5038340;28;20300;-71
2023/04/12 14:32:37;;;;;;;10.45;2.53;;;;;;;;;;5039926;28;20284;-71
2023/04/12 14:35:04;;;;;;;8.55;2.65;;;;;;;;;;5038254;28;20712;-71
2023/04/12 14:37:30;;;;;;;13.45;2.65;;;;;;;;;;5049388;28;20197;-71
2023/04/12 14:39:55;;;;;;;9.88;2.35;;;;;;;;;;5039756;28;20239;-71
2023/04/12 14:42:21;;;;;;;15.75;3.00;;;;;;;;;;5033702;28;20624;-71